Flight Track Log - Related Links

Times and Time Zones

All times are in EDT time to prevent confusion due to time zone crossing. See the GGA1 flight status page for this flight to view local times or setup timezone preferences in your user account.

Time Position Orientation Groundspeed Altitude Reporting Facility
EDT Latitude Longitude Course Direction KTS MPH feet Rate Location/Type
Thu 03:32:45 PM 37.9881 -84.6483 165° South 134 154 3,800  Level Indianapolis Center
Thu 03:33:47 PM 37.9508 -84.6567 190° South 153 176 6,200 2,129 Climbing Indianapolis Center
Thu 03:34:49 PM 37.9172 -84.6442 164° South 135 155 8,200 1,984 Climbing Indianapolis Center
Thu 03:35:51 PM 37.8803 -84.6314 165° South 136 157 10,300 1,935 Climbing Indianapolis Center
Thu 03:36:53 PM 37.8439 -84.6192 165° South 135 155 12,200 1,839 Climbing Indianapolis Center
Thu 03:37:00 PM 37.7251 -84.5059 165° South  Level Estimated
Thu 03:37:55 PM 37.8081 -84.6067 165° South 134 154 14,100  Level Indianapolis Center
Thu 03:38:00 PM 37.6628 -84.4854 165° South  Level Estimated
Thu 03:38:57 PM 37.7678 -84.5917 164° South 130 150 16,500  Level Indianapolis Center
Thu 03:40:00 PM 37.7308 -84.5806 167° South 134 154 18,400 1,824 Climbing Indianapolis Center
Thu 03:41:02 PM 37.6917 -84.5675 165° South 143 165 20,300 1,839 Climbing Indianapolis Center
Thu 03:42:04 PM 37.6492 -84.5531 165° South 152 175 22,200 1,597 Climbing Indianapolis Center
Thu 03:43:06 PM 37.6047 -84.5369 164° South 164 189 23,600 1,258 Climbing Indianapolis Center
Thu 03:44:08 PM 37.5461 -84.5167 165° South 185 213 24,800 677 Climbing Indianapolis Center
Thu 03:45:10 PM 37.4894 -84.4981 165° South 210 242 25,000 97 Climbing Indianapolis Center
Thu 03:46:12 PM 37.4275 -84.4767 165° South 228 262 25,000  Level Indianapolis Center
Thu 03:47:14 PM 37.3644 -84.4558 165° South 233 268 25,000  Level Indianapolis Center
Thu 03:48:16 PM 37.3011 -84.4322 163° South 236 272 25,000  Level Indianapolis Center
Thu 03:49:18 PM 37.2378 -84.4100 164° South 236 272 25,000  Level Indianapolis Center
Thu 03:50:20 PM 37.1633 -84.3844 165° South 237 273 25,000  Level Indianapolis Center
Thu 03:51:22 PM 37.1003 -84.3639 165° South 235 270 25,000  Level Indianapolis Center
Thu 03:52:24 PM 37.0364 -84.3417 164° South 238 274 25,000  Level Indianapolis Center
Thu 03:53:26 PM 36.9714 -84.3200 165° South 240 276 25,000  Level Indianapolis Center
Thu 03:54:29 PM 36.9069 -84.2978 165° South 241 277 25,000  Level Indianapolis Center
Thu 03:55:31 PM 36.8325 -84.2711 164° South 239 275 25,000  Level Indianapolis Center
Thu 03:56:33 PM 36.7697 -84.2511 166° South 236 272 25,000  Level Indianapolis Center
Thu 03:57:35 PM 36.7067 -84.2286 164° South 235 270 25,000  Level Indianapolis Center
Thu 03:58:37 PM 36.6433 -84.2067 164° South 236 272 25,000  Level Indianapolis Center
Thu 03:59:39 PM 36.5789 -84.1858 165° South 238 274 25,000  Level Indianapolis Center
Thu 04:00:41 PM 36.5086 -84.1622 165° South 247 284 25,000  Level Indianapolis Center
Thu 04:01:43 PM 36.4411 -84.1403 165° South 249 287 25,000  Level Indianapolis Center
Thu 04:02:45 PM 36.3608 -84.1139 165° South 249 287 25,000  Level Indianapolis Center
Thu 04:03:15 PM 36.3356 -84.1083 170° South 245 282 25,000  Level Atlanta Center
Thu 04:04:15 PM 36.2689 -84.0850 164° South 245 282 25,000  Level Atlanta Center
Thu 04:05:15 PM 36.2000 -84.0619 165° South 245 282 25,000  Level Atlanta Center
Thu 04:06:15 PM 36.1356 -84.0414 166° South 245 282 25,000  Level Atlanta Center
Thu 04:07:15 PM 36.0708 -84.0181 164° South 245 282 25,000  Level Atlanta Center
Thu 04:08:15 PM 35.9978 -83.9950 166° South 245 282 25,000  Level Atlanta Center
Thu 04:09:15 PM 35.9331 -83.9747 166° South 245 282 25,000 -250 Level Atlanta Center
Thu 04:10:15 PM 35.8642 -83.9492 163° South 245 282 24,500 -500 Descending Atlanta Center
Thu 04:11:15 PM 35.7933 -83.9261 165° South 251 289 24,000 -250 Descending Atlanta Center
Thu 04:12:15 PM 35.7244 -83.9031 165° South 256 295 24,000 -200 Level Atlanta Center
Thu 04:13:15 PM 35.6578 -83.8828 166° South 256 295 23,600 -500 Descending Atlanta Center
Thu 04:14:15 PM 35.5847 -83.8575 164° South 261 300 23,000 -300 Descending Atlanta Center
Thu 04:15:15 PM 35.5158 -83.8347 165° South 261 300 23,000  Level Atlanta Center
Thu 04:16:15 PM 35.4489 -83.8144 166° South 261 300 23,000  Level Atlanta Center
Thu 04:17:15 PM 35.3822 -83.7942 166° South 256 295 23,000  Level Atlanta Center
Thu 04:18:15 PM 35.3153 -83.7714 164° South 256 295 23,000 -250 Level Atlanta Center
Thu 04:19:15 PM 35.2486 -83.7514 166° South 256 295 22,500 -750 Descending Atlanta Center
Thu 04:20:15 PM 35.1711 -83.7236 164° South 267 307 21,500 -1,000 Descending Atlanta Center
Thu 04:21:15 PM 35.1003 -83.7011 165° South 272 313 20,500 -1,000 Descending Atlanta Center
Thu 04:22:15 PM 35.0272 -83.6761 164° South 272 313 19,500 -1,100 Descending Atlanta Center
Thu 04:23:15 PM 34.9539 -83.6536 166° South 272 313 18,300 -1,150 Descending Atlanta Center
Thu 04:24:15 PM 34.8872 -83.6286 163° South 283 326 17,200 -650 Descending Atlanta Center
Thu 04:25:15 PM 34.8183 -83.6061 165° South 270 311 17,000 -700 Descending Atlanta Center
Thu 04:26:15 PM 34.7389 -83.5811 166° South 265 305 15,800 -1,200 Descending Atlanta Center
Thu 04:27:15 PM 34.6678 -83.5564 164° South 260 299 14,600 -1,200 Descending Atlanta Center
Thu 04:29:15 PM 34.5278 -83.5117 165° South 260 299 12,200 -1,133 Descending Atlanta Center
Thu 04:30:15 PM 34.4672 -83.4919 165° South 244 281 11,200 -1,400 Descending Atlanta Center
Thu 04:31:15 PM 34.4044 -83.4747 167° South 234 269 9,400 -1,900 Descending Atlanta Center
Thu 04:32:15 PM 34.3397 -83.4550 166° South 240 276 7,400 -1,650 Descending Atlanta Center
Thu 04:33:15 PM 34.2811 -83.4353 164° South 230 265 6,100 -1,350 Descending Atlanta Center
Thu 04:34:15 PM 34.2225 -83.4183 167° South 224 258 4,700 -1,250 Descending Atlanta Center
Thu 04:35:15 PM 34.1683 -83.3986 163° South 227 261 3,600 -850 Descending Atlanta Center
Thu 04:36:15 PM 34.1161 -83.3789 163° South 216 249 3,000 -400 Descending Atlanta Center
Thu 04:37:15 PM 34.0678 -83.3592 161° South 197 227 2,800 -350 Descending Atlanta Center
Thu 04:38:15 PM 34.0136 -83.3672 187° South 190 219 2,300 -450 Descending Atlanta Center
Thu 04:39:15 PM 33.9678 -83.3650 178° South 183 211 1,900 -400 Descending Atlanta Center
Thu 04:42:00 PM 33.9486 -83.3264 165° South  Level Estimated
Thu 04:49:00 PM 33.9486 -83.3264 165° South  Level Estimated
Thu 04:50:00 PM 33.9486 -83.3264 165° South  Level Estimated

Login

Don't have an account? Register now (free) for customized features, flight alerts, and more!